Air Quality Table

TIMESTAMP NO2 O3 PM2.5 TEMP HUM AIRPRES WS WD NO
2022-01-24 19:00 N/A 57.98 µg/m3 4.69 µg/m3 10.01 °C N/A 1,013.06 mbar 1.5 m/s 195.85 Deg N/A
2022-01-24 18:00 N/A 60.43 µg/m3 3.26 µg/m3 10.49 °C N/A 1,012.70 mbar 1.5 m/s 198.08 Deg N/A
2022-01-24 17:00 N/A 65.7 µg/m3 1.08 µg/m3 11.27 °C N/A 1,012.26 mbar 1.74 m/s 112.27 Deg N/A
2022-01-24 16:00 N/A 71.86 µg/m3 1.76 µg/m3 11.82 °C N/A 1,012.19 mbar 2.28 m/s 20.17 Deg N/A
2022-01-24 15:00 N/A 77.09 µg/m3 1.52 µg/m3 12.32 °C N/A 1,011.97 mbar 2.29 m/s 9.02 Deg N/A
2022-01-24 14:00 N/A 78.22 µg/m3 1.5 µg/m3 12.68 °C N/A 1,012.15 mbar 2.22 m/s 96 Deg N/A
2022-01-24 13:00 N/A 78.98 µg/m3 2.01 µg/m3 13.55 °C N/A 1,012.78 mbar 2.51 m/s 13.93 Deg N/A
2022-01-24 12:00 N/A 75.21 µg/m3 1.97 µg/m3 13.43 °C N/A 1,013.49 mbar 2.28 m/s 98.7 Deg N/A
2022-01-24 11:00 N/A 72 µg/m3 2.73 µg/m3 13 °C N/A 1,013.94 mbar 1.98 m/s 13.28 Deg N/A
2022-01-24 10:00 N/A 61.42 µg/m3 4.03 µg/m3 12.5 °C N/A 1,013.78 mbar 1.45 m/s 90.52 Deg N/A
2022-01-24 09:00 N/A 39.25 µg/m3 5.45 µg/m3 11 °C N/A 1,013.64 mbar 0.94 m/s 338.88 Deg N/A
2022-01-24 08:00 N/A 26.43 µg/m3 4.92 µg/m3 8.79 °C N/A 1,013.71 mbar 0.56 m/s 329.83 Deg N/A
2022-01-24 07:00 N/A 41.03 µg/m3 4.49 µg/m3 8.31 °C N/A 1,013.55 mbar 1.07 m/s 261.83 Deg N/A
2022-01-24 06:00 N/A 35.8 µg/m3 3.05 µg/m3 8.19 °C N/A 1,013.55 mbar 0.49 m/s 332.37 Deg N/A
2022-01-24 05:00 N/A 46.07 µg/m3 2.07 µg/m3 8.35 °C N/A 1,013.73 mbar 0.4 m/s 320.9 Deg N/A
2022-01-24 04:00 N/A 67.15 µg/m3 1.2 µg/m3 9.49 °C N/A 1,013.89 mbar 0.69 m/s 114.19 Deg N/A
2022-01-24 03:00 N/A 73.42 µg/m3 1.74 µg/m3 9.93 °C N/A 1,014.21 mbar 0.76 m/s 49.71 Deg N/A
2022-01-24 02:00 N/A 77.01 µg/m3 1.99 µg/m3 10.33 °C N/A 1,014.34 mbar 0.94 m/s 306.42 Deg N/A
2022-01-24 01:00 N/A 79.07 µg/m3 2.5 µg/m3 10.64 °C N/A 1,014.41 mbar 1.06 m/s 217.43 Deg N/A
2022-01-24 00:00 N/A 73.58 µg/m3 2.22 µg/m3 10.86 °C N/A 1,014.50 mbar 1.23 m/s 182.68 Deg N/A
2022-01-23 23:00 N/A 64.34 µg/m3 2.58 µg/m3 10.54 °C N/A 1,014.37 mbar 0.53 m/s 308.78 Deg N/A
2022-01-23 22:00 N/A 67.77 µg/m3 3.26 µg/m3 10.6 °C N/A 1,014.51 mbar 0.7 m/s 296.46 Deg N/A
2022-01-23 21:00 N/A 66.53 µg/m3 1.97 µg/m3 10.77 °C N/A 1,014.58 mbar 0.79 m/s 296.62 Deg N/A

It is to be noted that the data is provisional and subject to quality assurance procedures. For validated data kindly refer your request to contact.air@era.org.mt